createdAt,value
2018-04-12T00:00:44.415Z,68.00
2018-04-12T00:03:13.325Z,67.80
2018-04-12T00:05:42.224Z,66.30
2018-04-12T00:08:11.101Z,67.10
2018-04-12T00:10:39.986Z,66.90
2018-04-12T00:13:08.907Z,66.70
2018-04-12T00:15:37.040Z,66.70
2018-04-12T00:18:05.925Z,66.10
2018-04-12T00:20:34.062Z,66.10
2018-04-12T00:23:02.183Z,66.50
2018-04-12T00:25:31.084Z,67.40
2018-04-12T00:27:59.973Z,67.90
2018-04-12T00:30:28.902Z,67.10
2018-04-12T00:32:57.060Z,67.10
2018-04-12T00:35:25.226Z,67.90
2018-04-12T00:37:54.112Z,67.70
2018-04-12T00:40:22.998Z,67.60
2018-04-12T00:42:51.896Z,67.30
2018-04-12T00:45:20.080Z,67.20
2018-04-12T00:47:48.198Z,67.90
2018-04-12T00:50:16.426Z,68.00
2018-04-12T00:52:44.559Z,68.20
2018-04-12T00:55:13.457Z,68.60
2018-04-12T00:57:42.376Z,68.50
2018-04-12T01:00:10.490Z,68.40
2018-04-12T01:02:38.721Z,67.80
2018-04-12T01:05:06.871Z,67.90
2018-04-12T01:07:35.773Z,69.10
2018-04-12T01:10:04.661Z,69.10
2018-04-12T01:12:33.553Z,68.50
2018-04-12T01:15:02.452Z,69.10
2018-04-12T01:17:31.450Z,68.50
2018-04-12T01:19:59.577Z,68.40
2018-04-12T01:22:27.708Z,68.60
2018-04-12T01:24:55.883Z,68.10
2018-04-12T01:27:24.017Z,68.00
2018-04-12T01:29:52.915Z,68.20
2018-04-12T01:32:21.802Z,68.20
2018-04-12T01:34:50.694Z,70.00
2018-04-12T01:37:19.605Z,69.30
2018-04-12T01:39:47.776Z,69.30
2018-04-12T01:42:15.906Z,69.60
2018-04-12T01:44:44.033Z,68.70
2018-04-12T01:47:12.186Z,69.10
2018-04-12T01:49:41.086Z,70.30
2018-04-12T01:52:09.266Z,70.20
2018-04-12T01:54:37.790Z,69.50
2018-04-12T01:57:05.918Z,68.50
2018-04-12T01:59:34.026Z,68.50
2018-04-12T02:02:02.148Z,68.30
2018-04-12T02:04:31.157Z,68.70
2018-04-12T02:06:59.301Z,68.60
2018-04-12T02:09:28.198Z,69.70
2018-04-12T02:11:57.086Z,69.30
2018-04-12T02:14:26.013Z,69.90
2018-04-12T02:16:54.141Z,69.80
2018-04-12T02:19:23.039Z,68.10
2018-04-12T02:21:51.933Z,67.90
2018-04-12T02:24:20.835Z,67.40
2018-04-12T02:26:49.742Z,67.40
2018-04-12T02:29:17.910Z,67.40
2018-04-12T02:31:46.027Z,67.60
2018-04-12T02:34:14.167Z,67.60
2018-04-12T02:36:42.306Z,67.80
2018-04-12T02:39:11.199Z,68.40
2018-04-12T02:41:40.944Z,68.10
2018-04-12T02:44:09.085Z,67.90
2018-04-12T02:46:38.091Z,67.60
2018-04-12T02:49:06.213Z,67.50
2018-04-12T02:51:34.337Z,67.40
2018-04-12T02:54:02.468Z,67.50
2018-04-12T02:56:30.609Z,67.40
2018-04-12T02:58:58.745Z,67.60
2018-04-12T03:01:28.081Z,68.20
2018-04-12T03:03:56.201Z,68.10
2018-04-12T03:06:25.105Z,67.90
2018-04-12T03:08:54.011Z,68.00
2018-04-12T03:11:22.187Z,68.00
2018-04-12T03:13:50.300Z,67.60
2018-04-12T03:16:18.436Z,68.60
2018-04-12T03:18:46.578Z,68.00
2018-04-12T03:21:15.469Z,68.00
2018-04-12T03:23:44.376Z,69.00
2018-04-12T03:26:12.563Z,68.80
2018-04-12T03:28:40.732Z,68.10
2018-04-12T03:31:08.864Z,67.90
2018-04-12T03:33:37.008Z,68.60
2018-04-12T03:36:05.117Z,67.70
2018-04-12T03:38:33.270Z,67.90
2018-04-12T03:41:01.386Z,68.20
2018-04-12T03:43:29.510Z,68.20
2018-04-12T03:45:57.648Z,68.20
2018-04-12T03:48:25.787Z,68.60
2018-04-12T03:50:54.694Z,68.70
2018-04-12T03:53:23.578Z,68.30
2018-04-12T03:55:52.578Z,68.90
2018-04-12T03:58:20.762Z,68.80
2018-04-12T04:00:48.878Z,68.40
2018-04-12T04:03:17.101Z,68.50
2018-04-12T04:05:45.235Z,68.70
2018-04-12T04:08:13.406Z,68.50
2018-04-12T04:10:41.526Z,69.50
2018-04-12T04:13:09.649Z,68.50
2018-04-12T04:15:49.713Z,68.50
2018-04-12T04:18:29.657Z,68.60
2018-04-12T04:21:03.735Z,68.70
2018-04-12T04:23:32.583Z,69.00
2018-04-12T04:26:01.465Z,68.40
2018-04-12T04:28:29.613Z,68.40
2018-04-12T04:30:57.738Z,69.10
2018-04-12T04:33:25.934Z,68.80
2018-04-12T04:35:54.082Z,68.90
2018-04-12T04:38:22.270Z,68.80
2018-04-12T04:40:50.398Z,68.70
2018-04-12T04:43:18.514Z,68.60
2018-04-12T04:45:46.680Z,69.20
2018-04-12T04:48:15.577Z,69.10
2018-04-12T04:50:44.449Z,69.30
2018-04-12T04:53:12.585Z,69.30
2018-04-12T04:55:40.731Z,69.30
2018-04-12T04:58:08.869Z,69.80
2018-04-12T05:00:36.999Z,69.70
2018-04-12T05:03:05.111Z,69.40
2018-04-12T05:05:34.016Z,70.40
2018-04-12T05:08:02.154Z,70.40
2018-04-12T05:10:30.289Z,71.00
2018-04-12T05:12:58.417Z,70.10
2018-04-12T05:15:26.590Z,69.80
2018-04-12T05:17:54.676Z,70.00
2018-04-12T05:20:22.832Z,70.00
2018-04-12T05:22:51.721Z,69.80
2018-04-12T05:25:20.615Z,69.90
2018-04-12T05:27:49.572Z,69.90
2018-04-12T05:30:17.669Z,69.90
2018-04-12T05:32:46.553Z,70.30
2018-04-12T05:35:15.455Z,71.10
2018-04-12T05:37:44.375Z,71.40
2018-04-12T05:40:12.509Z,71.30
2018-04-12T05:42:41.402Z,70.40
2018-04-12T05:45:10.321Z,70.20
2018-04-12T05:47:41.598Z,70.20
2018-04-12T05:50:09.731Z,70.80
2018-04-12T05:52:38.619Z,71.00
2018-04-12T05:55:06.802Z,71.00
2018-04-12T05:57:34.988Z,70.70
2018-04-12T06:00:03.172Z,70.90
2018-04-12T06:02:31.288Z,71.10
2018-04-12T06:04:59.410Z,71.50
2018-04-12T06:07:27.575Z,71.20
2018-04-12T06:09:55.740Z,71.00
2018-04-12T06:12:23.862Z,70.90
2018-04-12T06:14:52.012Z,70.90
2018-04-12T06:17:20.118Z,70.80
2018-04-12T06:19:48.267Z,71.00
2018-04-12T06:22:16.394Z,71.10
2018-04-12T06:24:44.588Z,71.80
2018-04-12T06:27:12.731Z,71.10
2018-04-12T06:29:41.750Z,70.50
2018-04-12T06:32:09.866Z,70.40
2018-04-12T06:34:38.012Z,70.60
2018-04-12T06:37:06.134Z,71.40
2018-04-12T06:39:35.051Z,71.90
2018-04-12T06:42:03.178Z,71.70
2018-04-12T06:44:31.322Z,71.90
2018-04-12T06:46:59.469Z,71.60
2018-04-12T06:49:27.597Z,71.10
2018-04-12T06:51:55.723Z,70.80
2018-04-12T06:54:23.893Z,72.00
2018-04-12T06:56:52.019Z,71.40
2018-04-12T06:59:20.235Z,71.90
2018-04-12T07:01:48.432Z,71.80
2018-04-12T07:04:16.554Z,71.60
2018-04-12T07:06:45.445Z,71.80
2018-04-12T07:09:14.344Z,71.80
2018-04-12T07:11:43.256Z,72.70
2018-04-12T07:14:11.391Z,72.70
2018-04-12T07:16:40.336Z,72.00
2018-04-12T07:19:08.468Z,71.90
2018-04-12T07:21:37.373Z,71.70
2018-04-12T07:24:05.519Z,71.70
2018-04-12T07:26:33.640Z,71.70
2018-04-12T07:29:01.799Z,72.60
2018-04-12T07:31:29.949Z,71.80
2018-04-12T07:33:58.849Z,72.50
2018-04-12T07:36:26.989Z,72.60
2018-04-12T07:38:55.135Z,71.80
2018-04-12T07:41:23.279Z,71.70
2018-04-12T07:43:51.497Z,72.80
2018-04-12T07:46:19.583Z,71.90
2018-04-12T07:48:47.754Z,72.30
2018-04-12T07:51:15.938Z,73.30
2018-04-12T07:53:44.054Z,72.30
2018-04-12T07:56:12.212Z,72.30
2018-04-12T07:58:40.391Z,72.30
2018-04-12T08:01:08.571Z,72.50
2018-04-12T08:03:36.737Z,72.40
2018-04-12T08:06:04.869Z,72.60
2018-04-12T08:08:33.007Z,72.40
2018-04-12T08:11:01.169Z,73.00
2018-04-12T08:13:29.347Z,71.90
2018-04-12T08:15:57.535Z,72.00
2018-04-12T08:18:25.671Z,72.40
2018-04-12T08:20:53.844Z,72.80
2018-04-12T08:23:21.966Z,72.10
2018-04-12T08:25:50.102Z,72.10
2018-04-12T08:28:18.285Z,72.20
2018-04-12T08:30:46.426Z,72.00
2018-04-12T08:33:15.322Z,71.90
2018-04-12T08:35:44.226Z,71.70
2018-04-12T08:38:12.356Z,71.60
2018-04-12T08:40:40.495Z,71.40
2018-04-12T08:43:08.625Z,71.60
2018-04-12T08:45:37.538Z,71.60
2018-04-12T08:48:05.682Z,71.60
2018-04-12T08:50:34.590Z,71.70
2018-04-12T08:53:03.362Z,71.60
2018-04-12T08:55:32.388Z,72.10
2018-04-12T08:58:00.571Z,72.10
2018-04-12T09:00:28.710Z,71.60
2018-04-12T09:02:57.655Z,71.50
2018-04-12T09:05:25.791Z,71.40
2018-04-12T09:07:53.914Z,71.50
2018-04-12T09:10:22.139Z,71.90
2018-04-12T09:12:50.278Z,72.00
2018-04-12T09:15:18.502Z,71.50
2018-04-12T09:17:46.658Z,71.20
2018-04-12T09:20:14.800Z,71.30
2018-04-12T09:22:43.724Z,71.70
2018-04-12T09:25:11.887Z,71.70
2018-04-12T09:27:40.882Z,72.10
2018-04-12T09:30:08.946Z,72.10
2018-04-12T09:32:37.875Z,71.50
2018-04-12T09:35:06.011Z,71.50
2018-04-12T09:37:34.917Z,71.60
2018-04-12T09:40:03.066Z,71.60
2018-04-12T09:42:31.995Z,71.70
2018-04-12T09:45:00.119Z,71.70
2018-04-12T09:47:28.284Z,71.60
2018-04-12T09:49:57.938Z,71.10
2018-04-12T09:52:26.097Z,71.10
2018-04-12T09:54:54.986Z,71.20
2018-04-12T09:57:30.490Z,71.10
2018-04-12T09:59:58.677Z,71.20
2018-04-12T10:02:28.576Z,71.20
2018-04-12T10:05:00.665Z,71.10
2018-04-12T10:07:44.850Z,70.80
2018-04-12T10:10:13.714Z,70.00
2018-04-12T10:12:42.618Z,69.90
2018-04-12T10:15:11.546Z,69.70
2018-04-12T10:17:39.671Z,69.60
2018-04-12T10:20:08.694Z,69.40
2018-04-12T10:22:36.966Z,69.40
2018-04-12T10:25:05.095Z,69.60
2018-04-12T10:27:33.986Z,70.00
2018-04-12T10:30:03.106Z,70.10
2018-04-12T10:32:32.018Z,70.20
2018-04-12T10:35:00.286Z,70.20
2018-04-12T10:37:28.466Z,70.00
2018-04-12T10:39:57.347Z,70.00
2018-04-12T10:42:26.458Z,69.60
2018-04-12T10:44:55.538Z,69.70
2018-04-12T10:47:23.710Z,69.70
2018-04-12T10:49:52.609Z,69.70
2018-04-12T10:52:20.765Z,69.60
2018-04-12T10:54:49.663Z,69.60
2018-04-12T10:57:18.553Z,69.40
2018-04-12T10:59:47.451Z,69.40
2018-04-12T11:02:15.601Z,69.40
2018-04-12T11:04:44.502Z,69.80
2018-04-12T11:07:13.405Z,69.50
2018-04-12T11:09:41.569Z,69.50
2018-04-12T11:12:10.597Z,69.60
2018-04-12T11:14:39.177Z,69.60
2018-04-12T11:17:07.292Z,69.60
2018-04-12T11:19:35.453Z,69.70
2018-04-12T11:22:03.595Z,69.80
2018-04-12T11:24:31.727Z,70.20
2018-04-12T11:27:00.626Z,69.40
2018-04-12T11:29:29.520Z,69.20
2018-04-12T11:31:57.656Z,69.20
2018-04-12T11:34:25.926Z,69.20
2018-04-12T11:36:54.001Z,69.20
2018-04-12T11:39:22.113Z,69.10
2018-04-12T11:41:50.279Z,69.20
2018-04-12T11:44:22.843Z,69.10
2018-04-12T11:46:52.504Z,68.70
2018-04-12T11:49:20.631Z,68.80
2018-04-12T11:51:48.822Z,68.80
2018-04-12T11:54:16.941Z,69.00
2018-04-12T11:56:45.069Z,69.20
2018-04-12T11:59:14.073Z,68.80
2018-04-12T12:01:42.282Z,68.80
2018-04-12T12:04:10.418Z,68.70
2018-04-12T12:06:38.536Z,69.00
2018-04-12T12:09:08.189Z,70.00
2018-04-12T12:11:36.366Z,70.00
2018-04-12T12:14:04.503Z,70.30
2018-04-12T12:16:32.637Z,70.50
2018-04-12T12:19:00.753Z,70.70
2018-04-12T12:21:28.881Z,70.40
2018-04-12T12:23:57.034Z,70.10
2018-04-12T12:26:25.165Z,70.10
2018-04-12T12:28:54.822Z,70.10
2018-04-12T12:31:22.982Z,70.10
2018-04-12T12:33:51.891Z,68.30
2018-04-12T12:36:20.009Z,68.30
2018-04-12T12:38:48.130Z,68.00
2018-04-12T12:41:16.258Z,67.90
2018-04-12T12:43:44.432Z,67.90
2018-04-12T12:46:12.550Z,67.20
2018-04-12T12:48:40.666Z,67.60
2018-04-12T12:51:10.421Z,67.50
2018-04-12T12:53:38.575Z,67.50
2018-04-12T12:56:07.485Z,67.00
2018-04-12T12:58:35.662Z,67.00
2018-04-12T13:01:03.832Z,67.10
2018-04-12T13:03:32.003Z,67.20
2018-04-12T13:06:00.889Z,67.90
2018-04-12T13:08:29.816Z,68.00
2018-04-12T13:10:57.929Z,68.10
2018-04-12T13:13:26.138Z,68.20
2018-04-12T13:15:54.327Z,67.80
2018-04-12T13:18:22.499Z,68.00
2018-04-12T13:20:50.638Z,68.30
2018-04-12T13:23:19.562Z,67.80
2018-04-12T13:25:47.682Z,67.20
2018-04-12T13:28:15.820Z,67.10
2018-04-12T13:30:43.976Z,67.20
2018-04-12T13:33:12.185Z,66.60
2018-04-12T13:35:40.294Z,66.80
2018-04-12T13:38:08.490Z,66.80
2018-04-12T13:40:36.607Z,66.60
2018-04-12T13:43:04.825Z,67.30
2018-04-12T13:48:12.781Z,67.20
2018-04-12T13:50:40.918Z,66.80
2018-04-12T13:53:09.782Z,67.90
2018-04-12T13:55:37.930Z,67.20
2018-04-12T13:58:06.062Z,67.50
2018-04-12T14:00:34.957Z,66.70
2018-04-12T14:03:03.121Z,66.70
2018-04-12T14:05:32.129Z,66.20
2018-04-12T14:08:01.001Z,66.30
2018-04-12T14:10:29.890Z,66.70
2018-04-12T14:12:58.822Z,66.50
2018-04-12T14:15:26.946Z,66.60
2018-04-12T14:17:55.830Z,66.30
2018-04-12T14:20:24.008Z,66.30
2018-04-12T14:22:52.138Z,66.70
2018-04-12T14:25:20.365Z,67.30
2018-04-12T14:27:49.247Z,67.80
2018-04-12T14:30:18.185Z,68.40
2018-04-12T14:32:46.359Z,68.30
2018-04-12T14:35:14.487Z,68.10
2018-04-12T14:37:43.389Z,67.90
2018-04-12T14:40:11.569Z,67.90
2018-04-12T14:42:40.521Z,67.60
2018-04-12T14:45:08.685Z,67.60
2018-04-12T14:47:36.820Z,67.50
2018-04-12T14:50:04.937Z,67.50
2018-04-12T14:52:33.174Z,67.90
2018-04-12T14:55:01.298Z,68.10
2018-04-12T14:57:29.513Z,67.00
2018-04-12T14:59:57.629Z,66.80
2018-04-12T15:02:25.871Z,67.00
2018-04-12T15:04:54.025Z,66.80
2018-04-12T15:07:22.145Z,66.80
2018-04-12T15:09:50.260Z,67.10
2018-04-12T15:12:19.155Z,65.10
2018-04-12T15:14:48.082Z,65.90
2018-04-12T15:17:16.207Z,65.90
2018-04-12T15:19:44.329Z,66.00
2018-04-12T15:22:12.485Z,65.80
2018-04-12T15:24:40.643Z,65.90
2018-04-12T15:27:08.771Z,65.10
2018-04-12T15:29:36.893Z,65.50
2018-04-12T15:32:05.049Z,65.60
2018-04-12T15:34:33.160Z,65.60
2018-04-12T15:37:01.350Z,65.90
2018-04-12T15:39:29.466Z,65.60
2018-04-12T15:41:58.346Z,65.50
2018-04-12T15:44:26.570Z,65.40
2018-04-12T15:46:55.543Z,65.50
2018-04-12T15:49:24.427Z,65.80
2018-04-12T15:51:53.303Z,66.00
2018-04-12T15:54:22.201Z,66.20
2018-04-12T15:56:51.196Z,66.20
2018-04-12T15:59:20.111Z,66.30
2018-04-12T16:01:48.983Z,66.20
2018-04-12T16:04:17.142Z,66.20
2018-04-12T16:06:46.050Z,65.90
2018-04-12T16:09:14.225Z,65.80
2018-04-12T16:11:43.114Z,66.10
2018-04-12T16:14:11.290Z,66.10
2018-04-12T16:16:40.199Z,65.00
2018-04-12T16:19:08.334Z,65.00
2018-04-12T16:21:37.222Z,64.70
2018-04-12T16:24:06.102Z,64.90
2018-04-12T16:26:34.230Z,64.80
2018-04-12T16:29:02.338Z,65.10
2018-04-12T16:31:30.483Z,65.40
2018-04-12T16:33:58.722Z,65.30
2018-04-12T16:36:26.854Z,65.40
2018-04-12T16:38:55.034Z,66.00
2018-04-12T16:41:23.110Z,65.40
2018-04-12T16:43:52.822Z,65.50
2018-04-12T16:46:20.946Z,65.50
2018-04-12T16:48:49.068Z,65.50
2018-04-12T16:51:17.244Z,65.50
2018-04-12T16:53:45.450Z,65.10
2018-04-12T16:56:13.647Z,65.20
2018-04-12T16:58:41.765Z,65.30
2018-04-12T17:01:10.025Z,65.40
2018-04-12T17:03:38.134Z,65.40
2018-04-12T17:06:07.070Z,65.40
2018-04-12T17:08:35.258Z,65.40
2018-04-12T17:11:03.375Z,65.50
2018-04-12T17:13:32.285Z,65.50
2018-04-12T17:16:00.446Z,65.50
2018-04-12T17:18:28.576Z,65.50
2018-04-12T17:20:56.725Z,65.50
2018-04-12T17:23:24.875Z,65.50
2018-04-12T17:25:53.005Z,65.40
2018-04-12T17:28:21.153Z,65.40
2018-04-12T17:30:49.277Z,65.30
2018-04-12T17:33:18.173Z,65.20
2018-04-12T17:35:47.094Z,65.20
2018-04-12T17:38:15.291Z,65.10
2018-04-12T17:40:43.421Z,65.20
2018-04-12T17:43:11.601Z,65.30
2018-04-12T17:45:39.729Z,65.30
2018-04-12T17:48:07.928Z,65.30
2018-04-12T17:50:36.821Z,65.30
2018-04-12T17:53:05.765Z,65.30
2018-04-12T17:55:33.897Z,65.30
2018-04-12T17:58:02.195Z,65.30
2018-04-12T18:00:30.309Z,65.20
2018-04-12T18:02:58.421Z,65.20
2018-04-12T18:05:26.562Z,65.30
2018-04-12T18:07:54.875Z,65.20
2018-04-12T18:10:22.991Z,65.40
2018-04-12T18:12:51.109Z,65.30
2018-04-12T18:15:19.412Z,65.30
2018-04-12T18:17:47.656Z,65.40
2018-04-12T18:20:15.837Z,65.40
2018-04-12T18:22:43.951Z,65.40
2018-04-12T18:25:12.090Z,65.40
2018-04-12T18:27:40.275Z,65.40
2018-04-12T18:30:08.389Z,65.40
2018-04-12T18:32:36.550Z,65.50
2018-04-12T18:35:04.666Z,65.50
2018-04-12T18:37:33.567Z,65.50
2018-04-12T18:40:01.693Z,65.50
2018-04-12T18:42:31.341Z,65.60
2018-04-12T18:45:00.233Z,65.50
2018-04-12T18:47:28.374Z,65.50
2018-04-12T18:49:56.513Z,65.60
2018-04-12T18:52:24.629Z,65.60
2018-04-12T18:54:52.829Z,65.40
2018-04-12T18:57:21.006Z,65.50
2018-04-12T18:59:49.127Z,65.30
2018-04-12T19:02:17.292Z,65.30
2018-04-12T19:04:45.463Z,65.10
2018-04-12T19:07:13.634Z,65.00
2018-04-12T19:09:41.776Z,64.80
2018-04-12T19:12:09.908Z,64.90
2018-04-12T19:14:38.050Z,64.90
2018-04-12T19:17:06.201Z,64.80
2018-04-12T19:19:34.322Z,64.80
2018-04-12T19:22:02.494Z,64.80
2018-04-12T19:24:30.612Z,64.90
2018-04-12T19:26:58.754Z,64.90
2018-04-12T19:29:27.685Z,64.90
2018-04-12T19:31:55.826Z,64.90
2018-04-12T19:34:24.706Z,64.90
2018-04-12T19:36:52.874Z,64.80
2018-04-12T19:39:21.012Z,64.90
2018-04-12T19:41:49.233Z,64.80
2018-04-12T19:44:17.320Z,64.90
2018-04-12T19:46:46.210Z,64.90
2018-04-12T19:49:15.180Z,65.00
2018-04-12T19:51:43.317Z,65.00
2018-04-12T19:54:11.442Z,64.80
2018-04-12T19:56:40.375Z,65.10
2018-04-12T19:59:08.486Z,64.80
2018-04-12T20:01:36.670Z,65.00
2018-04-12T20:04:04.770Z,65.00
2018-04-12T20:06:32.890Z,64.80
2018-04-12T20:09:01.074Z,64.90
2018-04-12T20:11:29.188Z,65.30
2018-04-12T20:13:57.370Z,65.00
2018-04-12T20:16:25.457Z,65.10
2018-04-12T20:18:53.577Z,65.30
2018-04-12T20:21:22.469Z,64.60
2018-04-12T20:23:51.353Z,65.10
2018-04-12T20:26:19.559Z,65.00
2018-04-12T20:28:47.769Z,65.10
2018-04-12T20:31:15.938Z,65.40
2018-04-12T20:33:44.091Z,65.10
2018-04-12T20:36:12.225Z,65.00
2018-04-12T20:38:40.421Z,65.20
2018-04-12T20:41:08.592Z,65.50
2018-04-12T20:43:36.775Z,65.10
2018-04-12T20:46:04.919Z,65.10
2018-04-12T20:48:33.038Z,64.90
2018-04-12T20:51:01.195Z,65.00
2018-04-12T20:53:29.340Z,65.00
2018-04-12T20:55:57.529Z,64.90
2018-04-12T20:58:25.678Z,64.90
2018-04-12T21:00:54.611Z,64.70
2018-04-12T21:03:22.746Z,65.30
2018-04-12T21:05:50.882Z,65.20
2018-04-12T21:08:19.086Z,65.20
2018-04-12T21:10:47.180Z,65.20
2018-04-12T21:13:16.094Z,65.10
2018-04-12T21:15:44.214Z,65.10
2018-04-12T21:18:12.440Z,64.90
2018-04-12T21:20:40.582Z,65.10
2018-04-12T21:23:09.489Z,65.00
2018-04-12T21:25:37.621Z,65.10
2018-04-12T21:28:05.758Z,65.10
2018-04-12T21:30:33.939Z,65.20
2018-04-12T21:33:02.068Z,65.10
2018-04-12T21:35:31.012Z,64.90
2018-04-12T21:37:59.174Z,64.90
2018-04-12T21:40:27.323Z,65.10
2018-04-12T21:42:55.471Z,65.00
2018-04-12T21:45:25.115Z,64.90
2018-04-12T21:47:53.280Z,64.90
2018-04-12T21:50:21.457Z,64.90
2018-04-12T21:52:49.662Z,64.80
2018-04-12T21:55:17.773Z,65.40
2018-04-12T21:57:46.673Z,64.50
2018-04-12T22:00:15.601Z,64.80
2018-04-12T22:02:43.719Z,64.80
2018-04-12T22:05:12.615Z,64.80
2018-04-12T22:07:41.551Z,65.00
2018-04-12T22:10:09.674Z,64.90
2018-04-12T22:12:38.560Z,64.80
2018-04-12T22:15:06.694Z,64.90
2018-04-12T22:17:34.878Z,64.90
2018-04-12T22:20:03.026Z,64.60
2018-04-12T22:22:31.160Z,64.60
2018-04-12T22:25:00.797Z,64.90
2018-04-12T22:27:28.933Z,64.90
2018-04-12T22:29:57.093Z,64.60
2018-04-12T22:32:25.218Z,64.50
2018-04-12T22:34:54.111Z,64.80
2018-04-12T22:37:22.289Z,64.80
2018-04-12T22:39:50.428Z,64.70
2018-04-12T22:42:19.336Z,64.70
2018-04-12T22:44:48.229Z,64.80
2018-04-12T22:47:17.252Z,64.80
2018-04-12T22:49:45.411Z,64.70
2018-04-12T22:52:13.543Z,64.60
2018-04-12T22:54:41.758Z,64.70
2018-04-12T22:57:09.926Z,64.70
2018-04-12T22:59:38.060Z,64.40
2018-04-12T23:02:07.718Z,64.50
2018-04-12T23:04:35.911Z,64.50
2018-04-12T23:07:04.009Z,64.60
2018-04-12T23:09:32.178Z,64.60
2018-04-12T23:12:00.338Z,64.70
2018-04-12T23:14:28.460Z,64.80
2018-04-12T23:16:57.350Z,64.70
2018-04-12T23:19:26.360Z,64.80
2018-04-12T23:21:54.527Z,64.80
2018-04-12T23:24:23.428Z,64.80
2018-04-12T23:26:51.626Z,64.70
2018-04-12T23:29:19.736Z,64.80
2018-04-12T23:31:48.679Z,64.70
2018-04-12T23:34:16.813Z,64.80
2018-04-12T23:36:45.720Z,65.10
2018-04-12T23:39:13.880Z,65.00
2018-04-12T23:41:42.785Z,64.80
2018-04-12T23:44:10.913Z,64.80
2018-04-12T23:46:39.152Z,64.90
2018-04-12T23:49:07.302Z,64.80
2018-04-12T23:51:35.449Z,65.00
2018-04-12T23:54:04.340Z,65.10
2018-04-12T23:56:33.221Z,64.80
2018-04-12T23:59:01.438Z,64.80
